createdAt,value
2023-04-09T00:00:13.057Z,17.90
2023-04-09T00:02:39.882Z,16.95
2023-04-09T00:05:08.059Z,17.58
2023-04-09T00:07:34.722Z,15.77
2023-04-09T00:10:02.192Z,16.55
2023-04-09T00:12:30.259Z,15.63
2023-04-09T00:14:57.416Z,16.83
2023-04-09T00:17:24.242Z,18.23
2023-04-09T00:19:51.081Z,16.85
2023-04-09T00:22:17.779Z,15.48
2023-04-09T00:24:44.449Z,15.45
2023-04-09T00:27:11.098Z,16.08
2023-04-09T00:29:37.799Z,17.13
2023-04-09T00:32:04.586Z,16.80
2023-04-09T00:34:31.460Z,18.30
2023-04-09T00:36:58.207Z,16.30
2023-04-09T00:39:24.926Z,16.80
2023-04-09T00:42:00.035Z,16.05
2023-04-09T00:44:27.695Z,16.42
2023-04-09T00:46:55.256Z,18.95
2023-04-09T00:49:22.409Z,17.35
2023-04-09T00:51:49.332Z,15.98
2023-04-09T00:54:16.340Z,18.85
2023-04-09T00:56:43.839Z,17.40
2023-04-09T00:59:10.666Z,18.83
2023-04-09T01:01:37.632Z,18.52
2023-04-09T01:04:05.339Z,17.42
2023-04-09T01:06:32.000Z,16.65
2023-04-09T01:09:12.404Z,15.32
2023-04-09T01:12:05.857Z,16.10
2023-04-09T01:14:53.731Z,16.60
2023-04-09T01:17:31.337Z,17.15
2023-04-09T01:20:11.842Z,19.45
2023-04-09T01:23:09.558Z,16.55
2023-04-09T01:25:56.101Z,17.88
2023-04-09T01:28:34.008Z,17.90
2023-04-09T01:31:14.971Z,19.00
2023-04-09T01:33:42.229Z,16.85
2023-04-09T01:36:10.227Z,19.65
2023-04-09T01:38:41.327Z,19.20
2023-04-09T01:41:10.230Z,19.25
2023-04-09T01:43:38.059Z,20.65
2023-04-09T01:46:05.449Z,18.38
2023-04-09T01:48:33.994Z,19.92
2023-04-09T01:51:02.271Z,19.27
2023-04-09T01:53:28.998Z,18.77
2023-04-09T01:55:58.581Z,19.80
2023-04-09T01:58:26.039Z,20.63
2023-04-09T02:00:59.927Z,17.90
2023-04-09T02:03:46.275Z,19.63
2023-04-09T02:06:24.445Z,19.13
2023-04-09T02:11:23.472Z,19.42
2023-04-09T02:13:51.822Z,19.10
2023-04-09T02:16:19.341Z,20.48
2023-04-09T02:18:46.221Z,18.83
2023-04-09T02:21:13.684Z,20.83
2023-04-09T02:23:40.751Z,20.13
2023-04-09T02:26:07.552Z,22.58
2023-04-09T02:28:34.320Z,21.00
2023-04-09T02:31:02.216Z,20.98
2023-04-09T02:33:30.405Z,22.00
2023-04-09T02:35:57.071Z,22.80
2023-04-09T02:38:24.620Z,21.38
2023-04-09T02:40:51.258Z,19.50
2023-04-09T02:43:17.933Z,18.95
2023-04-09T02:45:44.639Z,21.27
2023-04-09T02:48:11.307Z,21.63
2023-04-09T02:50:37.995Z,21.55
2023-04-09T02:53:04.714Z,21.80
2023-04-09T02:55:31.552Z,19.48
2023-04-09T02:57:58.306Z,19.70
2023-04-09T03:00:24.994Z,20.60
2023-04-09T03:02:52.206Z,24.10
2023-04-09T03:05:19.066Z,22.77
2023-04-09T03:07:47.230Z,20.80
2023-04-09T03:10:13.975Z,21.20
2023-04-09T03:12:40.776Z,20.63
2023-04-09T03:15:07.880Z,20.80
2023-04-09T03:17:34.581Z,22.27
2023-04-09T03:20:02.184Z,22.02
2023-04-09T03:22:39.491Z,20.95
2023-04-09T03:25:21.187Z,19.67
2023-04-09T03:27:51.877Z,22.80
2023-04-09T03:30:26.839Z,21.25
2023-04-09T03:32:54.822Z,19.98
2023-04-09T03:35:23.324Z,19.08
2023-04-09T03:37:56.828Z,18.40
2023-04-09T03:40:23.657Z,21.08
2023-04-09T03:42:50.305Z,20.88
2023-04-09T03:45:17.861Z,17.95
2023-04-09T03:47:47.521Z,18.48
2023-04-09T03:50:14.310Z,18.70
2023-04-09T03:52:47.091Z,16.33
2023-04-09T03:55:13.835Z,18.42
2023-04-09T03:57:40.886Z,16.35
2023-04-09T04:00:12.107Z,16.60
2023-04-09T04:02:50.729Z,16.63
2023-04-09T04:05:25.918Z,17.42
2023-04-09T04:07:55.105Z,18.13
2023-04-09T04:10:27.271Z,17.35
2023-04-09T04:12:54.080Z,17.00
2023-04-09T04:15:44.151Z,20.30
2023-04-09T04:18:13.547Z,17.90
2023-04-09T04:20:44.245Z,16.95
2023-04-09T04:23:13.753Z,17.10
2023-04-09T04:25:53.107Z,17.73
2023-04-09T04:28:26.270Z,15.05
2023-04-09T04:30:52.977Z,17.73
2023-04-09T04:33:19.779Z,17.05
2023-04-09T04:35:52.641Z,16.90
2023-04-09T04:38:35.982Z,16.67
2023-04-09T04:41:07.219Z,17.23
2023-04-09T04:43:37.544Z,15.00
2023-04-09T04:46:04.337Z,17.05
2023-04-09T04:48:32.015Z,16.63
2023-04-09T04:51:00.757Z,15.57
2023-04-09T04:53:34.561Z,17.65
2023-04-09T04:56:15.667Z,17.02
2023-04-09T04:58:58.319Z,19.05
2023-04-09T05:01:25.432Z,19.58
2023-04-09T05:03:53.452Z,19.23
2023-04-09T05:06:33.510Z,21.00
2023-04-09T05:09:03.813Z,22.10
2023-04-09T05:11:38.760Z,20.88
2023-04-09T05:14:09.599Z,22.83
2023-04-09T05:16:36.674Z,20.23
2023-04-09T05:19:06.013Z,21.73
2023-04-09T05:21:32.895Z,25.08
2023-04-09T05:24:00.963Z,25.88
2023-04-09T05:26:31.421Z,23.30
2023-04-09T05:28:58.846Z,24.23
2023-04-09T05:31:26.155Z,25.58
2023-04-09T05:34:00.770Z,24.77
2023-04-09T05:36:38.477Z,26.25
2023-04-09T05:39:05.428Z,24.92
2023-04-09T05:41:33.460Z,29.75
2023-04-09T05:44:25.740Z,25.33
2023-04-09T05:46:59.081Z,27.13
2023-04-09T05:49:32.287Z,30.05
2023-04-09T05:52:00.277Z,30.00
2023-04-09T05:54:31.608Z,26.80
2023-04-09T05:56:58.735Z,28.70
2023-04-09T05:59:25.960Z,32.10
2023-04-09T06:01:53.521Z,29.30
2023-04-09T06:04:20.624Z,28.73
2023-04-09T06:06:47.464Z,30.88
2023-04-09T06:09:14.520Z,30.63
2023-04-09T06:11:41.264Z,29.65
2023-04-09T06:14:07.973Z,26.88
2023-04-09T06:16:34.875Z,32.35
2023-04-09T06:19:02.247Z,29.20
2023-04-09T06:21:29.008Z,29.17
2023-04-09T06:23:56.058Z,29.50
2023-04-09T06:26:22.729Z,33.33
2023-04-09T06:28:49.416Z,30.33
2023-04-09T06:31:16.279Z,30.77
2023-04-09T06:33:42.960Z,29.67
2023-04-09T06:36:09.701Z,32.55
2023-04-09T06:38:36.407Z,31.88
2023-04-09T06:41:03.572Z,31.63
2023-04-09T06:43:30.672Z,32.17
2023-04-09T06:45:58.400Z,30.83
2023-04-09T06:48:25.275Z,32.50
2023-04-09T06:50:52.074Z,33.33
2023-04-09T06:53:18.849Z,40.45
2023-04-09T06:55:45.634Z,32.08
2023-04-09T06:58:12.355Z,35.05
2023-04-09T07:00:39.032Z,32.45
2023-04-09T07:03:07.915Z,33.85
2023-04-09T07:05:35.807Z,30.65
2023-04-09T07:08:02.494Z,34.38
2023-04-09T07:10:29.193Z,30.70
2023-04-09T07:12:55.877Z,30.23
2023-04-09T07:15:22.551Z,32.20
2023-04-09T07:17:49.290Z,32.50
2023-04-09T07:20:16.218Z,34.38
2023-04-09T07:22:42.902Z,39.22
2023-04-09T07:25:09.824Z,35.80
2023-04-09T07:27:36.609Z,40.10
2023-04-09T07:30:04.470Z,36.05
2023-04-09T07:32:31.341Z,36.47
2023-04-09T07:34:59.381Z,35.35
2023-04-09T07:37:27.024Z,36.60
2023-04-09T07:39:53.817Z,38.15
2023-04-09T07:42:20.679Z,37.83
2023-04-09T07:44:47.551Z,37.97
2023-04-09T07:47:14.492Z,35.35
2023-04-09T07:49:41.324Z,39.55
2023-04-09T07:52:08.222Z,38.45
2023-04-09T07:54:35.454Z,34.53
2023-04-09T07:57:02.754Z,34.92
2023-04-09T07:59:30.749Z,34.13
2023-04-09T08:01:57.960Z,37.10
2023-04-09T08:04:24.904Z,34.63
2023-04-09T08:06:51.781Z,38.88
2023-04-09T08:09:19.154Z,37.50
2023-04-09T08:11:47.316Z,36.63
2023-04-09T08:14:15.480Z,35.38
2023-04-09T08:16:47.317Z,32.45
2023-04-09T08:21:43.170Z,33.03
2023-04-09T08:24:11.720Z,32.55
2023-04-09T08:26:39.591Z,31.52
2023-04-09T08:29:06.827Z,32.30
2023-04-09T08:31:34.169Z,33.83
2023-04-09T08:34:02.188Z,31.00
2023-04-09T08:36:28.935Z,35.33
2023-04-09T08:38:56.635Z,32.95
2023-04-09T08:41:24.732Z,35.03
2023-04-09T08:43:58.390Z,30.05
2023-04-09T08:46:27.143Z,31.95
2023-04-09T08:48:54.320Z,29.30
2023-04-09T08:51:23.903Z,30.27
2023-04-09T08:54:04.337Z,31.88
2023-04-09T08:56:31.585Z,29.27
2023-04-09T08:58:58.599Z,33.30
2023-04-09T09:01:30.478Z,28.17
2023-04-09T09:04:08.623Z,24.92
2023-04-09T09:06:38.031Z,22.35
2023-04-09T09:09:05.468Z,26.52
2023-04-09T09:11:42.481Z,21.60
2023-04-09T09:14:11.310Z,19.73
2023-04-09T09:16:43.740Z,20.27
2023-04-09T09:19:25.637Z,18.23
2023-04-09T09:22:00.032Z,20.00
2023-04-09T09:24:26.736Z,18.45
2023-04-09T09:26:58.687Z,19.40
2023-04-09T09:31:53.998Z,19.55
2023-04-09T09:34:23.068Z,19.08
2023-04-09T09:36:49.957Z,19.20
2023-04-09T09:39:17.694Z,20.80
2023-04-09T09:41:46.303Z,19.63
2023-04-09T09:44:30.574Z,20.13
2023-04-09T09:46:58.610Z,18.08
2023-04-09T09:49:25.299Z,16.38
2023-04-09T09:51:56.720Z,19.45
2023-04-09T09:54:25.979Z,17.73
2023-04-09T09:56:55.697Z,18.25
2023-04-09T09:59:32.192Z,17.52
2023-04-09T10:02:06.042Z,18.05
2023-04-09T10:04:36.638Z,17.58
2023-04-09T10:07:08.184Z,17.83
2023-04-09T10:09:52.737Z,17.42
2023-04-09T10:12:23.816Z,15.40
2023-04-09T10:14:53.058Z,15.85
2023-04-09T10:17:20.975Z,15.60
2023-04-09T10:20:02.192Z,16.10
2023-04-09T10:22:32.951Z,14.90
2023-04-09T10:24:59.882Z,14.60
2023-04-09T10:27:30.066Z,13.85
2023-04-09T10:29:56.723Z,13.35
2023-04-09T10:32:26.809Z,12.80
2023-04-09T10:34:58.458Z,12.45
2023-04-09T10:37:27.246Z,11.27
2023-04-09T10:39:54.048Z,11.93
2023-04-09T10:42:27.274Z,10.75
2023-04-09T10:45:07.571Z,10.65
2023-04-09T10:47:37.866Z,10.52
2023-04-09T10:50:17.091Z,8.15
2023-04-09T10:52:44.283Z,8.50
2023-04-09T10:55:34.983Z,7.88
2023-04-09T10:58:02.815Z,8.00
2023-04-09T11:00:29.478Z,5.88
2023-04-09T11:03:24.861Z,6.20
2023-04-09T11:06:03.158Z,6.97
2023-04-09T11:08:32.081Z,6.32
2023-04-09T11:11:01.195Z,5.82
2023-04-09T11:13:29.109Z,5.40
2023-04-09T11:15:56.939Z,6.30
2023-04-09T11:18:28.807Z,5.53
2023-04-09T11:21:00.400Z,5.70
2023-04-09T11:23:28.479Z,5.82
2023-04-09T11:25:56.380Z,5.85
2023-04-09T11:28:24.421Z,5.93
2023-04-09T11:30:52.066Z,6.65
2023-04-09T11:33:20.290Z,5.18
2023-04-09T11:35:47.906Z,6.30
2023-04-09T11:38:14.671Z,4.90
2023-04-09T11:40:48.107Z,5.35
2023-04-09T11:43:16.584Z,5.45
2023-04-09T11:45:44.074Z,5.15
2023-04-09T11:48:11.627Z,4.70
2023-04-09T11:50:38.401Z,5.28
2023-04-09T11:53:21.821Z,5.07
2023-04-09T11:55:52.669Z,5.80
2023-04-09T11:58:23.448Z,7.55
2023-04-09T12:00:57.825Z,5.93
2023-04-09T12:03:30.622Z,6.18
2023-04-09T12:06:02.136Z,7.78
2023-04-09T12:08:28.858Z,8.10
2023-04-09T12:10:55.532Z,6.53
2023-04-09T12:13:31.921Z,6.70
2023-04-09T12:16:01.179Z,5.38
2023-04-09T12:18:27.937Z,5.43
2023-04-09T12:20:54.593Z,6.97
2023-04-09T12:23:21.271Z,6.25
2023-04-09T12:25:48.102Z,6.38
2023-04-09T12:28:17.886Z,5.97
2023-04-09T12:30:44.830Z,5.60
2023-04-09T12:33:11.687Z,6.38
2023-04-09T12:35:38.897Z,6.95
2023-04-09T12:38:06.185Z,6.28
2023-04-09T12:40:32.925Z,6.88
2023-04-09T12:42:59.699Z,7.10
2023-04-09T12:45:27.849Z,7.63
2023-04-09T12:47:54.520Z,6.72
2023-04-09T12:50:21.293Z,6.72
2023-04-09T12:52:47.991Z,5.97
2023-04-09T12:55:14.935Z,6.68
2023-04-09T12:57:45.357Z,6.68
2023-04-09T13:00:12.897Z,6.25
2023-04-09T13:02:39.793Z,7.10
2023-04-09T13:05:07.331Z,7.30
2023-04-09T13:07:34.150Z,6.65
2023-04-09T13:10:01.332Z,7.20
2023-04-09T13:12:28.087Z,6.05
2023-04-09T13:14:55.563Z,7.25
2023-04-09T13:17:22.579Z,7.53
2023-04-09T13:19:50.635Z,6.93
2023-04-09T13:22:18.362Z,7.95
2023-04-09T13:24:45.116Z,7.28
2023-04-09T13:27:11.958Z,6.57
2023-04-09T13:29:38.891Z,7.60
2023-04-09T13:32:10.765Z,6.75
2023-04-09T13:37:05.401Z,7.50
2023-04-09T13:39:32.790Z,6.10
2023-04-09T13:42:00.200Z,7.05
2023-04-09T13:44:27.357Z,7.20
2023-04-09T13:46:54.149Z,6.93
2023-04-09T13:49:21.039Z,7.18
2023-04-09T13:51:48.973Z,6.40
2023-04-09T13:54:16.273Z,7.05
2023-04-09T13:56:44.410Z,6.75
2023-04-09T13:59:11.484Z,7.55
2023-04-09T14:01:38.322Z,6.28
2023-04-09T14:04:05.175Z,8.82
2023-04-09T14:06:31.957Z,7.75
2023-04-09T14:08:58.626Z,8.63
2023-04-09T14:11:25.298Z,9.45
2023-04-09T14:13:52.397Z,8.98
2023-04-09T14:16:19.815Z,8.15
2023-04-09T14:18:46.576Z,9.75
2023-04-09T14:21:13.412Z,8.35
2023-04-09T14:23:40.474Z,7.90
2023-04-09T14:26:07.373Z,8.77
2023-04-09T14:28:34.053Z,8.43
2023-04-09T14:31:01.073Z,8.27
2023-04-09T14:33:28.152Z,7.85
2023-04-09T14:35:55.188Z,9.07
2023-04-09T14:38:24.072Z,8.55
2023-04-09T14:40:51.230Z,9.40
2023-04-09T14:43:17.961Z,8.45
2023-04-09T14:45:44.888Z,8.27
2023-04-09T14:48:11.590Z,8.27
2023-04-09T14:50:38.299Z,8.15
2023-04-09T14:53:05.747Z,7.90
2023-04-09T14:55:32.482Z,7.72
2023-04-09T14:57:59.668Z,7.40
2023-04-09T15:00:26.666Z,6.57
2023-04-09T15:02:53.468Z,6.85
2023-04-09T15:05:20.404Z,6.82
2023-04-09T15:07:47.147Z,7.63
2023-04-09T15:10:14.079Z,7.80
2023-04-09T15:12:40.944Z,7.78
2023-04-09T15:15:09.050Z,7.45
2023-04-09T15:17:37.033Z,6.85
2023-04-09T15:20:04.118Z,6.65
2023-04-09T15:22:30.927Z,7.50
2023-04-09T15:24:57.638Z,6.68
2023-04-09T15:27:24.397Z,6.85
2023-04-09T15:29:51.594Z,7.25
2023-04-09T15:32:18.659Z,6.95
2023-04-09T15:34:45.343Z,6.63
2023-04-09T15:37:12.034Z,6.75
2023-04-09T15:39:38.845Z,6.22
2023-04-09T15:42:06.771Z,6.45
2023-04-09T15:44:36.202Z,6.07
2023-04-09T15:47:02.997Z,7.10
2023-04-09T15:49:29.669Z,6.68
2023-04-09T15:51:56.292Z,6.38
2023-04-09T15:54:22.973Z,6.15
2023-04-09T15:56:49.808Z,6.60
2023-04-09T15:59:16.806Z,6.30
2023-04-09T16:01:44.195Z,6.63
2023-04-09T16:04:10.957Z,6.80
2023-04-09T16:06:39.288Z,7.32
2023-04-09T16:09:06.068Z,5.93
2023-04-09T16:11:35.939Z,6.32
2023-04-09T16:14:03.062Z,5.47
2023-04-09T16:16:29.849Z,6.50
2023-04-09T16:18:56.766Z,5.88
2023-04-09T16:21:23.469Z,6.10
2023-04-09T16:23:50.496Z,6.75
2023-04-09T16:26:17.151Z,5.97
2023-04-09T16:28:43.794Z,6.68
2023-04-09T16:31:10.540Z,6.65
2023-04-09T16:33:37.221Z,6.97
2023-04-09T16:36:04.146Z,6.38
2023-04-09T16:38:31.234Z,6.57
2023-04-09T16:40:57.985Z,6.03
2023-04-09T16:43:25.738Z,6.88
2023-04-09T16:45:52.530Z,6.00
2023-04-09T16:48:19.335Z,6.05
2023-04-09T16:50:46.008Z,6.05
2023-04-09T16:53:12.812Z,6.22
2023-04-09T16:55:39.536Z,8.82
2023-04-09T16:58:06.224Z,7.10
2023-04-09T17:00:32.930Z,10.52
2023-04-09T17:02:59.835Z,5.78
2023-04-09T17:05:27.683Z,6.45
2023-04-09T17:07:54.400Z,6.55
2023-04-09T17:10:21.223Z,6.53
2023-04-09T17:12:48.315Z,6.15
2023-04-09T17:15:15.225Z,7.07
2023-04-09T17:17:43.533Z,6.47
2023-04-09T17:20:11.253Z,6.65
2023-04-09T17:22:39.221Z,6.68
2023-04-09T17:25:06.515Z,7.32
2023-04-09T17:27:33.331Z,6.00
2023-04-09T17:30:00.050Z,6.30
2023-04-09T17:32:27.813Z,6.38
2023-04-09T17:34:54.547Z,6.22
2023-04-09T17:37:21.248Z,7.70
2023-04-09T17:39:48.062Z,7.13
2023-04-09T17:42:14.839Z,8.85
2023-04-09T17:44:43.630Z,7.55
2023-04-09T17:47:11.656Z,7.95
2023-04-09T17:49:39.289Z,12.43
2023-04-09T17:52:06.109Z,15.77
2023-04-09T17:54:38.000Z,15.63
2023-04-09T17:57:04.948Z,13.20
2023-04-09T17:59:33.068Z,15.73
2023-04-09T18:02:00.309Z,16.02
2023-04-09T18:04:27.976Z,10.85
2023-04-09T18:06:54.895Z,9.98
2023-04-09T18:09:21.874Z,10.05
2023-04-09T18:11:49.023Z,8.15
2023-04-09T18:14:15.805Z,8.85
2023-04-09T18:16:42.836Z,7.88
2023-04-09T18:19:11.739Z,8.23
2023-04-09T18:21:38.710Z,8.48
2023-04-09T18:24:05.654Z,8.00
2023-04-09T18:26:33.775Z,10.18
2023-04-09T18:29:01.364Z,9.32
2023-04-09T18:31:28.644Z,8.60
2023-04-09T18:33:56.093Z,8.23
2023-04-09T18:36:23.026Z,8.57
2023-04-09T18:38:49.791Z,9.10
2023-04-09T18:41:27.119Z,8.27
2023-04-09T18:43:54.324Z,8.80
2023-04-09T18:46:21.039Z,9.00
2023-04-09T18:48:47.734Z,10.48
2023-04-09T18:51:14.798Z,8.65
2023-04-09T18:53:42.051Z,10.45
2023-04-09T18:56:09.271Z,10.43
2023-04-09T18:58:36.596Z,9.65
2023-04-09T19:01:11.423Z,9.57
2023-04-09T19:03:39.045Z,10.32
2023-04-09T19:06:18.045Z,11.38
2023-04-09T19:08:45.810Z,11.27
2023-04-09T19:11:13.060Z,11.32
2023-04-09T19:13:40.474Z,11.43
2023-04-09T19:16:09.139Z,11.98
2023-04-09T19:18:37.074Z,11.52
2023-04-09T19:21:05.149Z,10.27
2023-04-09T19:23:34.036Z,10.32
2023-04-09T19:26:02.180Z,10.73
2023-04-09T19:28:29.141Z,11.15
2023-04-09T19:30:56.430Z,11.70
2023-04-09T19:33:24.480Z,12.85
2023-04-09T19:35:52.574Z,12.45
2023-04-09T19:38:19.577Z,13.85
2023-04-09T19:40:46.794Z,16.85
2023-04-09T19:43:14.002Z,14.90
2023-04-09T19:45:42.520Z,17.60
2023-04-09T19:48:09.290Z,18.77
2023-04-09T19:50:40.926Z,19.73
2023-04-09T19:53:07.734Z,19.95
2023-04-09T19:55:34.857Z,19.27
2023-04-09T19:58:02.424Z,19.63
2023-04-09T20:00:29.218Z,17.73
2023-04-09T20:02:57.142Z,18.45
2023-04-09T20:05:24.257Z,18.50
2023-04-09T20:07:52.947Z,17.67
2023-04-09T20:10:20.048Z,19.02
2023-04-09T20:12:48.393Z,19.48
2023-04-09T20:15:17.429Z,16.85
2023-04-09T20:17:44.260Z,19.13
2023-04-09T20:20:12.168Z,17.58
2023-04-09T20:22:43.175Z,16.92
2023-04-09T20:25:12.960Z,16.13
2023-04-09T20:27:39.655Z,15.25
2023-04-09T20:30:07.085Z,15.38
2023-04-09T20:32:35.782Z,16.10
2023-04-09T20:35:02.744Z,12.70
2023-04-09T20:37:29.367Z,12.55
2023-04-09T20:39:58.409Z,10.82
2023-04-09T20:42:25.054Z,11.90
2023-04-09T20:44:52.741Z,12.55
2023-04-09T20:47:21.040Z,11.63
2023-04-09T20:49:48.932Z,12.98
2023-04-09T20:52:15.623Z,11.30
2023-04-09T20:54:43.022Z,11.10
2023-04-09T20:57:11.003Z,11.80
2023-04-09T20:59:38.822Z,15.85
2023-04-09T21:02:05.539Z,11.95
2023-04-09T21:04:32.380Z,11.63
2023-04-09T21:06:59.042Z,11.70
2023-04-09T21:09:26.063Z,11.82
2023-04-09T21:11:52.752Z,11.52
2023-04-09T21:14:19.425Z,12.27
2023-04-09T21:16:46.177Z,12.80
2023-04-09T21:19:12.956Z,13.20
2023-04-09T21:21:39.637Z,11.95
2023-04-09T21:24:06.378Z,11.70
2023-04-09T21:26:48.697Z,13.18
2023-04-09T21:29:16.570Z,11.27
2023-04-09T21:31:43.272Z,12.35
2023-04-09T21:34:09.941Z,12.13
2023-04-09T21:36:39.174Z,12.23
2023-04-09T21:39:05.938Z,12.23
2023-04-09T21:41:32.656Z,11.95
2023-04-09T21:44:03.466Z,12.98
2023-04-09T21:46:30.191Z,15.85
2023-04-09T21:48:56.865Z,18.27
2023-04-09T21:51:23.526Z,23.75
2023-04-09T21:53:50.166Z,24.83
2023-04-09T21:56:16.835Z,21.20
2023-04-09T21:58:43.529Z,19.30
2023-04-09T22:01:19.232Z,17.00
2023-04-09T22:03:53.175Z,16.13
2023-04-09T22:06:19.955Z,14.70
2023-04-09T22:08:55.395Z,14.73
2023-04-09T22:11:28.147Z,16.48
2023-04-09T22:13:58.529Z,13.63
2023-04-09T22:16:25.770Z,14.50
2023-04-09T22:18:53.904Z,14.32
2023-04-09T22:21:21.393Z,14.00
2023-04-09T22:23:48.081Z,13.13
2023-04-09T22:26:14.810Z,14.48
2023-04-09T22:28:41.442Z,14.80
2023-04-09T22:31:08.175Z,14.13
2023-04-09T22:33:34.885Z,13.15
2023-04-09T22:36:02.221Z,14.90
2023-04-09T22:38:28.963Z,13.52
2023-04-09T22:40:55.866Z,14.95
2023-04-09T22:43:22.632Z,13.52
2023-04-09T22:45:57.128Z,14.25
2023-04-09T22:48:23.950Z,14.77
2023-04-09T22:50:51.054Z,14.50
2023-04-09T22:53:20.720Z,15.25
2023-04-09T22:55:50.774Z,14.20
2023-04-09T22:58:18.189Z,14.02
2023-04-09T23:00:44.929Z,15.45
2023-04-09T23:03:11.736Z,15.10
2023-04-09T23:05:38.832Z,15.05
2023-04-09T23:08:05.820Z,15.05
2023-04-09T23:10:33.781Z,13.35
2023-04-09T23:13:00.791Z,15.38
2023-04-09T23:15:28.435Z,14.57
2023-04-09T23:17:55.497Z,15.32
2023-04-09T23:20:22.704Z,14.18
2023-04-09T23:22:49.436Z,14.18
2023-04-09T23:25:16.660Z,14.45
2023-04-09T23:27:43.785Z,14.05
2023-04-09T23:30:11.183Z,12.73
2023-04-09T23:32:37.847Z,16.60
2023-04-09T23:35:04.983Z,13.80
2023-04-09T23:37:31.638Z,12.65
2023-04-09T23:39:58.288Z,14.30
2023-04-09T23:42:26.128Z,15.77
2023-04-09T23:44:52.779Z,14.75
2023-04-09T23:47:19.425Z,14.32
2023-04-09T23:49:46.631Z,15.65
2023-04-09T23:52:13.309Z,15.05
2023-04-09T23:54:46.901Z,16.10
2023-04-09T23:57:13.574Z,17.30
2023-04-09T23:59:40.492Z,16.23
